createdAt,value
2023-04-30T00:00:11.275Z,84.47
2023-04-30T00:03:00.439Z,85.14
2023-04-30T00:05:30.946Z,85.31
2023-04-30T00:07:59.578Z,85.60
2023-04-30T00:10:28.463Z,86.22
2023-04-30T00:12:57.297Z,86.55
2023-04-30T00:15:26.281Z,87.09
2023-04-30T00:17:55.004Z,87.13
2023-04-30T00:20:23.981Z,87.23
2023-04-30T00:22:54.050Z,87.26
2023-04-30T00:25:24.693Z,87.38
2023-04-30T00:27:53.477Z,86.92
2023-04-30T00:30:22.435Z,86.89
2023-04-30T00:32:51.154Z,87.37
2023-04-30T00:35:20.156Z,86.78
2023-04-30T00:37:48.973Z,86.53
2023-04-30T00:40:19.486Z,85.80
2023-04-30T00:42:48.720Z,85.77
2023-04-30T00:45:22.041Z,85.71
2023-04-30T00:47:51.393Z,85.19
2023-04-30T00:50:21.212Z,85.59
2023-04-30T00:52:50.068Z,87.04
2023-04-30T00:55:21.623Z,87.12
2023-04-30T00:57:50.531Z,86.88
2023-04-30T01:00:20.269Z,86.34
2023-04-30T01:02:50.286Z,87.26
2023-04-30T01:05:19.328Z,87.74
2023-04-30T01:07:48.153Z,87.49
2023-04-30T01:10:19.925Z,87.83
2023-04-30T01:12:57.538Z,88.17
2023-04-30T01:15:37.576Z,88.35
2023-04-30T01:18:14.840Z,88.88
2023-04-30T01:20:51.596Z,89.41
2023-04-30T01:23:43.438Z,89.18
2023-04-30T01:26:29.563Z,89.25
2023-04-30T01:29:04.000Z,89.35
2023-04-30T01:31:32.996Z,89.59
2023-04-30T01:34:01.693Z,90.10
2023-04-30T01:36:52.152Z,89.69
2023-04-30T01:39:57.886Z,90.04
2023-04-30T01:42:38.076Z,90.16
2023-04-30T01:45:28.546Z,89.92
2023-04-30T01:48:09.811Z,90.65
2023-04-30T01:50:49.481Z,90.64
2023-04-30T01:53:29.830Z,90.96
2023-04-30T01:56:03.598Z,91.15
2023-04-30T01:58:34.794Z,91.41
2023-04-30T02:01:05.008Z,91.63
2023-04-30T02:03:34.565Z,92.11
2023-04-30T02:06:04.073Z,92.87
2023-04-30T02:08:33.027Z,93.21
2023-04-30T02:11:01.632Z,93.83
2023-04-30T02:13:30.723Z,94.05
2023-04-30T02:15:59.575Z,94.02
2023-04-30T02:18:29.863Z,94.13
2023-04-30T02:20:58.530Z,94.47
2023-04-30T02:23:27.484Z,95.10
2023-04-30T02:25:56.143Z,95.88
2023-04-30T02:28:25.158Z,96.11
2023-04-30T02:30:53.784Z,96.22
2023-04-30T02:33:22.695Z,97.10
2023-04-30T02:35:52.720Z,97.61
2023-04-30T02:38:22.257Z,97.10
2023-04-30T02:40:51.019Z,98.43
2023-04-30T02:43:20.113Z,98.98
2023-04-30T02:45:49.154Z,98.42
2023-04-30T02:48:18.405Z,99.27
2023-04-30T02:50:47.322Z,99.91
2023-04-30T02:53:18.131Z,98.84
2023-04-30T02:55:47.306Z,98.06
2023-04-30T02:58:16.298Z,98.08
2023-04-30T03:00:44.937Z,97.57
2023-04-30T03:03:14.542Z,97.04
2023-04-30T03:05:43.222Z,95.91
2023-04-30T03:08:12.926Z,95.80
2023-04-30T03:10:43.028Z,95.13
2023-04-30T03:13:11.901Z,94.55
2023-04-30T03:15:40.635Z,94.05
2023-04-30T03:18:09.612Z,93.37
2023-04-30T03:20:38.429Z,91.98
2023-04-30T03:23:07.451Z,91.58
2023-04-30T03:25:36.077Z,90.97
2023-04-30T03:28:06.612Z,90.17
2023-04-30T03:30:35.303Z,89.00
2023-04-30T03:33:06.647Z,88.53
2023-04-30T03:35:35.864Z,88.28
2023-04-30T03:38:05.190Z,87.67
2023-04-30T03:40:33.826Z,87.71
2023-04-30T03:43:02.783Z,88.28
2023-04-30T03:45:32.874Z,87.37
2023-04-30T03:48:01.979Z,87.19
2023-04-30T03:50:30.974Z,85.81
2023-04-30T03:52:59.930Z,86.24
2023-04-30T03:55:28.917Z,87.54
2023-04-30T03:57:58.479Z,86.76
2023-04-30T04:00:27.603Z,85.27
2023-04-30T04:03:00.367Z,86.46
2023-04-30T04:05:30.320Z,85.74
2023-04-30T04:07:59.207Z,85.13
2023-04-30T04:10:27.991Z,85.25
2023-04-30T04:12:57.477Z,84.93
2023-04-30T04:15:26.157Z,84.12
2023-04-30T04:17:56.892Z,83.57
2023-04-30T04:20:25.741Z,80.87
2023-04-30T04:22:54.880Z,81.06
2023-04-30T04:25:25.246Z,81.12
2023-04-30T04:27:54.368Z,80.48
2023-04-30T04:30:22.970Z,79.39
2023-04-30T04:32:53.984Z,78.51
2023-04-30T04:35:24.317Z,78.52
2023-04-30T04:37:53.341Z,78.28
2023-04-30T04:40:22.113Z,78.64
2023-04-30T04:42:52.481Z,79.32
2023-04-30T04:45:21.670Z,79.25
2023-04-30T04:47:52.243Z,78.86
2023-04-30T04:50:21.299Z,77.58
2023-04-30T04:52:51.714Z,76.90
2023-04-30T04:55:20.629Z,76.02
2023-04-30T04:57:49.624Z,76.85
2023-04-30T05:00:19.379Z,75.67
2023-04-30T05:02:48.844Z,76.23
2023-04-30T05:05:18.208Z,75.53
2023-04-30T05:07:47.239Z,74.05
2023-04-30T05:10:17.666Z,74.16
2023-04-30T05:12:46.581Z,74.43
2023-04-30T05:15:15.394Z,74.96
2023-04-30T05:17:44.377Z,75.74
2023-04-30T05:20:14.547Z,76.07
2023-04-30T05:22:43.482Z,75.43
2023-04-30T05:25:12.243Z,76.26
2023-04-30T05:27:42.657Z,76.54
2023-04-30T05:30:12.874Z,76.80
2023-04-30T05:32:41.824Z,76.79
2023-04-30T05:35:11.261Z,74.47
2023-04-30T05:37:40.160Z,74.61
2023-04-30T05:40:10.559Z,74.31
2023-04-30T05:42:40.942Z,74.69
2023-04-30T05:45:12.382Z,74.32
2023-04-30T05:47:41.622Z,74.20
2023-04-30T05:50:11.476Z,75.11
2023-04-30T05:52:40.483Z,74.63
2023-04-30T05:55:11.065Z,75.03
2023-04-30T05:57:40.117Z,74.78
2023-04-30T06:00:12.550Z,75.47
2023-04-30T06:02:41.970Z,75.33
2023-04-30T06:05:12.874Z,75.88
2023-04-30T06:07:43.660Z,76.06
2023-04-30T06:10:12.993Z,76.24
2023-04-30T06:12:42.044Z,76.63
2023-04-30T06:15:12.586Z,76.78
2023-04-30T06:17:41.697Z,77.08
2023-04-30T06:20:11.521Z,77.19
2023-04-30T06:22:41.233Z,77.31
2023-04-30T06:25:11.065Z,74.93
2023-04-30T06:27:39.976Z,74.93
2023-04-30T06:30:12.006Z,73.17
2023-04-30T06:32:41.492Z,72.81
2023-04-30T06:35:11.105Z,70.34
2023-04-30T06:37:40.491Z,69.32
2023-04-30T06:40:10.458Z,69.79
2023-04-30T06:42:39.419Z,68.83
2023-04-30T06:45:09.742Z,68.93
2023-04-30T06:47:41.835Z,67.97
2023-04-30T06:50:11.477Z,65.52
2023-04-30T06:52:40.662Z,64.75
2023-04-30T06:55:09.925Z,63.67
2023-04-30T06:57:39.910Z,56.49
2023-04-30T07:00:09.954Z,54.59
2023-04-30T07:02:40.394Z,53.97
2023-04-30T07:05:11.282Z,53.05
2023-04-30T07:07:40.276Z,53.99
2023-04-30T07:10:09.835Z,51.27
2023-04-30T07:12:38.791Z,51.03
2023-04-30T07:15:09.176Z,51.11
2023-04-30T07:17:41.842Z,51.81
2023-04-30T07:20:13.119Z,51.03
2023-04-30T07:22:44.496Z,50.93
2023-04-30T07:25:13.321Z,50.41
2023-04-30T07:27:42.534Z,49.18
2023-04-30T07:30:11.566Z,49.36
2023-04-30T07:32:42.807Z,50.33
2023-04-30T07:35:11.733Z,49.91
2023-04-30T07:37:41.637Z,47.69
2023-04-30T07:40:22.018Z,46.54
2023-04-30T07:42:57.870Z,46.54
2023-04-30T07:45:26.631Z,46.46
2023-04-30T07:47:56.986Z,46.47
2023-04-30T07:50:25.684Z,47.50
2023-04-30T07:52:54.763Z,48.00
2023-04-30T07:55:23.565Z,48.88
2023-04-30T07:57:52.491Z,47.24
2023-04-30T08:00:21.431Z,46.25
2023-04-30T08:02:50.861Z,46.75
2023-04-30T08:05:21.502Z,47.55
2023-04-30T08:07:50.486Z,48.04
2023-04-30T08:10:19.211Z,46.30
2023-04-30T08:12:48.124Z,45.23
2023-04-30T08:15:16.820Z,44.29
2023-04-30T08:17:45.872Z,44.21
2023-04-30T08:20:14.675Z,43.06
2023-04-30T08:22:45.795Z,43.04
2023-04-30T08:25:15.016Z,42.47
2023-04-30T08:27:43.985Z,44.10
2023-04-30T08:30:13.265Z,43.75
2023-04-30T08:32:42.542Z,43.62
2023-04-30T08:35:11.801Z,43.87
2023-04-30T08:37:40.773Z,43.30
2023-04-30T08:40:14.053Z,44.83
2023-04-30T08:42:51.435Z,43.42
2023-04-30T08:45:20.962Z,42.01
2023-04-30T08:47:51.538Z,41.36
2023-04-30T08:50:20.631Z,39.31
2023-04-30T08:52:49.959Z,40.98
2023-04-30T08:55:20.130Z,38.33
2023-04-30T08:57:49.054Z,37.92
2023-04-30T09:00:18.017Z,37.69
2023-04-30T09:02:49.375Z,37.78
2023-04-30T09:05:18.121Z,36.26
2023-04-30T09:10:22.997Z,32.84
2023-04-30T09:13:03.020Z,33.74
2023-04-30T09:15:33.826Z,35.78
2023-04-30T09:18:12.349Z,36.09
2023-04-30T09:20:57.291Z,33.95
2023-04-30T09:23:27.042Z,34.51
2023-04-30T09:25:57.982Z,33.66
2023-04-30T09:28:28.829Z,31.98
2023-04-30T09:30:58.981Z,31.32
2023-04-30T09:33:28.165Z,31.05
2023-04-30T09:35:57.092Z,30.71
2023-04-30T09:38:31.258Z,29.81
2023-04-30T09:41:03.106Z,31.67
2023-04-30T09:43:32.577Z,32.74
2023-04-30T09:46:01.571Z,32.43
2023-04-30T09:48:30.542Z,30.88
2023-04-30T09:50:59.548Z,31.09
2023-04-30T09:53:29.253Z,30.86
2023-04-30T09:56:07.984Z,30.58
2023-04-30T09:58:39.333Z,30.65
2023-04-30T10:01:11.428Z,30.32
2023-04-30T10:03:43.808Z,31.75
2023-04-30T10:06:15.683Z,29.20
2023-04-30T10:08:47.973Z,29.57
2023-04-30T10:11:22.765Z,29.80
2023-04-30T10:13:59.333Z,29.41
2023-04-30T10:16:40.457Z,30.76
2023-04-30T10:19:15.711Z,31.69
2023-04-30T10:21:47.436Z,30.78
2023-04-30T10:24:19.476Z,28.81
2023-04-30T10:26:51.055Z,27.82
2023-04-30T10:29:20.677Z,29.21
2023-04-30T10:31:52.796Z,28.94
2023-04-30T10:34:34.436Z,28.02
2023-04-30T10:37:12.267Z,26.88
2023-04-30T10:39:41.873Z,25.61
2023-04-30T10:42:13.306Z,23.82
2023-04-30T10:44:42.661Z,24.07
2023-04-30T10:47:11.626Z,24.98
2023-04-30T10:49:43.096Z,25.68
2023-04-30T10:52:12.843Z,24.90
2023-04-30T10:54:50.536Z,24.26
2023-04-30T10:57:23.196Z,25.56
2023-04-30T11:00:25.684Z,26.60
2023-04-30T11:03:00.802Z,25.38
2023-04-30T11:05:38.798Z,27.61
2023-04-30T11:08:12.601Z,27.65
2023-04-30T11:11:00.129Z,27.32
2023-04-30T11:13:30.491Z,28.62
2023-04-30T11:16:05.351Z,29.14
2023-04-30T11:18:34.589Z,29.97
2023-04-30T11:21:04.999Z,28.91
2023-04-30T11:23:40.303Z,29.28
2023-04-30T11:26:11.533Z,28.43
2023-04-30T11:28:56.678Z,30.10
2023-04-30T11:31:35.113Z,30.66
2023-04-30T11:34:04.568Z,28.97
2023-04-30T11:36:35.041Z,29.60
2023-04-30T11:39:08.024Z,28.53
2023-04-30T11:41:42.715Z,27.98
2023-04-30T11:44:27.181Z,27.90
2023-04-30T11:46:56.775Z,27.32
2023-04-30T11:49:25.615Z,27.46
2023-04-30T11:51:54.863Z,27.15
2023-04-30T11:54:24.137Z,27.23
2023-04-30T11:56:53.206Z,28.79
2023-04-30T11:59:21.930Z,28.92
2023-04-30T12:01:52.616Z,29.62
2023-04-30T12:04:21.943Z,29.96
2023-04-30T12:06:51.563Z,30.44
2023-04-30T12:09:20.277Z,29.45
2023-04-30T12:11:49.906Z,31.07
2023-04-30T12:14:18.665Z,32.08
2023-04-30T12:16:53.246Z,32.40
2023-04-30T12:19:25.279Z,34.08
2023-04-30T12:21:55.782Z,34.93
2023-04-30T12:24:28.790Z,35.25
2023-04-30T12:27:01.972Z,33.27
2023-04-30T12:29:30.803Z,32.38
2023-04-30T12:32:01.389Z,32.72
2023-04-30T12:34:33.821Z,33.24
2023-04-30T12:37:03.677Z,30.51
2023-04-30T12:39:35.380Z,31.06
2023-04-30T12:42:05.004Z,31.73
2023-04-30T12:44:44.013Z,32.34
2023-04-30T12:47:15.584Z,32.02
2023-04-30T12:49:47.092Z,32.42
2023-04-30T12:52:16.833Z,33.11
2023-04-30T12:54:45.509Z,32.10
2023-04-30T12:57:14.683Z,33.54
2023-04-30T13:00:00.928Z,33.06
2023-04-30T13:02:32.299Z,32.97
2023-04-30T13:05:01.399Z,31.03
2023-04-30T13:07:39.606Z,31.77
2023-04-30T13:10:09.739Z,31.91
2023-04-30T13:12:38.697Z,32.03
2023-04-30T13:15:08.749Z,32.96
2023-04-30T13:17:39.617Z,31.81
2023-04-30T13:20:10.755Z,31.67
2023-04-30T13:22:39.744Z,30.65
2023-04-30T13:25:09.547Z,31.51
2023-04-30T13:27:38.567Z,32.72
2023-04-30T13:30:09.167Z,30.67
2023-04-30T13:32:39.548Z,31.46
2023-04-30T13:35:10.343Z,30.22
2023-04-30T13:37:39.937Z,30.31
2023-04-30T13:40:10.378Z,30.40
2023-04-30T13:42:42.583Z,30.92
2023-04-30T13:45:12.678Z,29.50
2023-04-30T13:47:43.196Z,29.19
2023-04-30T13:50:13.273Z,29.14
2023-04-30T13:52:42.302Z,29.95
2023-04-30T13:55:11.395Z,30.22
2023-04-30T13:57:40.421Z,29.61
2023-04-30T14:00:10.857Z,29.79
2023-04-30T14:02:40.013Z,30.36
2023-04-30T14:05:11.247Z,29.86
2023-04-30T14:07:40.152Z,29.34
2023-04-30T14:10:09.972Z,28.86
2023-04-30T14:12:38.899Z,29.31
2023-04-30T14:15:08.863Z,29.53
2023-04-30T14:17:37.954Z,30.31
2023-04-30T14:20:11.336Z,29.84
2023-04-30T14:22:40.522Z,29.99
2023-04-30T14:25:10.832Z,30.60
2023-04-30T14:27:42.106Z,29.96
2023-04-30T14:30:11.926Z,29.91
2023-04-30T14:32:40.944Z,29.91
2023-04-30T14:35:11.597Z,29.36
2023-04-30T14:37:40.590Z,29.61
2023-04-30T14:40:11.829Z,28.61
2023-04-30T14:42:40.826Z,29.32
2023-04-30T14:45:11.512Z,30.08
2023-04-30T14:47:40.780Z,29.75
2023-04-30T14:50:11.931Z,29.05
2023-04-30T14:52:42.183Z,30.13
2023-04-30T14:55:11.118Z,30.14
2023-04-30T14:57:41.052Z,29.69
2023-04-30T15:00:12.144Z,30.04
2023-04-30T15:02:41.207Z,29.94
2023-04-30T15:05:12.213Z,28.13
2023-04-30T15:07:41.140Z,28.32
2023-04-30T15:10:11.463Z,29.28
2023-04-30T15:12:40.555Z,28.75
2023-04-30T15:15:10.541Z,29.44
2023-04-30T15:17:39.670Z,29.44
2023-04-30T15:20:11.541Z,29.71
2023-04-30T15:22:40.737Z,29.00
2023-04-30T15:25:10.563Z,29.24
2023-04-30T15:27:41.317Z,29.18
2023-04-30T15:30:11.459Z,29.68
2023-04-30T15:32:40.583Z,29.36
2023-04-30T15:35:11.330Z,29.48
2023-04-30T15:37:40.228Z,29.01
2023-04-30T15:40:14.189Z,28.89
2023-04-30T15:42:43.224Z,28.86
2023-04-30T15:45:12.409Z,29.55
2023-04-30T15:47:41.813Z,28.85
2023-04-30T15:50:12.651Z,29.13
2023-04-30T15:52:41.713Z,29.32
2023-04-30T15:55:11.375Z,29.61
2023-04-30T15:57:40.330Z,29.38
2023-04-30T16:00:11.118Z,29.10
2023-04-30T16:02:43.282Z,29.81
2023-04-30T16:05:13.386Z,29.44
2023-04-30T16:07:43.871Z,29.70
2023-04-30T16:10:13.270Z,29.17
2023-04-30T16:12:42.398Z,29.28
2023-04-30T16:15:12.551Z,29.87
2023-04-30T16:17:41.640Z,30.42
2023-04-30T16:20:13.308Z,30.53
2023-04-30T16:22:42.551Z,30.67
2023-04-30T16:25:12.039Z,30.72
2023-04-30T16:27:41.168Z,30.37
2023-04-30T16:30:11.309Z,30.23
2023-04-30T16:32:40.388Z,30.37
2023-04-30T16:35:10.602Z,30.47
2023-04-30T16:37:41.160Z,30.63
2023-04-30T16:40:11.443Z,30.54
2023-04-30T16:42:40.396Z,30.71
2023-04-30T16:45:10.792Z,31.27
2023-04-30T16:47:40.472Z,31.19
2023-04-30T16:50:10.487Z,31.73
2023-04-30T16:52:40.770Z,31.87
2023-04-30T16:55:10.364Z,32.25
2023-04-30T16:57:39.294Z,32.23
2023-04-30T17:00:14.242Z,32.04
2023-04-30T17:02:45.675Z,32.41
2023-04-30T17:05:14.963Z,32.43
2023-04-30T17:07:45.735Z,32.52
2023-04-30T17:10:15.049Z,32.95
2023-04-30T17:12:44.454Z,33.12
2023-04-30T17:15:13.387Z,33.85
2023-04-30T17:17:42.399Z,33.93
2023-04-30T17:20:12.428Z,34.37
2023-04-30T17:22:41.403Z,34.50
2023-04-30T17:25:12.527Z,34.58
2023-04-30T17:27:41.499Z,34.93
2023-04-30T17:30:10.980Z,35.19
2023-04-30T17:32:40.030Z,35.29
2023-04-30T17:35:09.203Z,35.45
2023-04-30T17:37:38.211Z,35.72
2023-04-30T17:40:09.067Z,35.97
2023-04-30T17:42:39.985Z,35.81
2023-04-30T17:45:09.937Z,35.82
2023-04-30T17:47:39.741Z,35.87
2023-04-30T17:50:09.714Z,35.97
2023-04-30T17:52:39.357Z,36.08
2023-04-30T17:55:09.813Z,36.24
2023-04-30T17:57:40.119Z,36.71
2023-04-30T18:00:10.460Z,36.23
2023-04-30T18:02:43.319Z,36.48
2023-04-30T18:05:12.856Z,36.18
2023-04-30T18:07:41.796Z,36.58
2023-04-30T18:10:11.064Z,37.19
2023-04-30T18:12:42.029Z,37.63
2023-04-30T18:15:13.181Z,37.53
2023-04-30T18:17:42.665Z,38.62
2023-04-30T18:20:13.005Z,38.72
2023-04-30T18:22:43.546Z,38.18
2023-04-30T18:25:14.103Z,38.63
2023-04-30T18:27:44.908Z,39.48
2023-04-30T18:30:14.097Z,41.64
2023-04-30T18:32:44.265Z,42.68
2023-04-30T18:35:13.097Z,41.44
2023-04-30T18:37:42.080Z,43.23
2023-04-30T18:40:11.890Z,42.68
2023-04-30T18:42:40.868Z,42.25
2023-04-30T18:45:12.214Z,43.58
2023-04-30T18:47:41.337Z,43.87
2023-04-30T18:50:15.322Z,44.07
2023-04-30T18:52:45.226Z,45.08
2023-04-30T18:55:14.446Z,43.39
2023-04-30T18:57:43.835Z,43.94
2023-04-30T19:00:15.321Z,45.60
2023-04-30T19:02:44.595Z,45.57
2023-04-30T19:05:14.231Z,44.65
2023-04-30T19:07:43.346Z,44.36
2023-04-30T19:10:12.313Z,46.35
2023-04-30T19:12:43.920Z,46.78
2023-04-30T19:15:15.627Z,46.24
2023-04-30T19:17:44.669Z,46.41
2023-04-30T19:20:14.287Z,46.82
2023-04-30T19:22:43.658Z,47.60
2023-04-30T19:25:12.627Z,47.33
2023-04-30T19:27:41.609Z,47.71
2023-04-30T19:30:11.661Z,48.02
2023-04-30T19:32:42.122Z,48.56
2023-04-30T19:35:11.454Z,49.52
2023-04-30T19:37:40.414Z,50.64
2023-04-30T19:40:11.870Z,50.51
2023-04-30T19:42:41.189Z,50.74
2023-04-30T19:45:11.576Z,50.58
2023-04-30T19:47:41.982Z,51.54
2023-04-30T19:50:11.534Z,51.27
2023-04-30T19:52:40.479Z,51.72
2023-04-30T19:55:10.328Z,51.50
2023-04-30T19:57:39.304Z,52.38
2023-04-30T20:00:12.991Z,51.85
2023-04-30T20:02:43.738Z,51.96
2023-04-30T20:05:12.558Z,52.83
2023-04-30T20:07:42.241Z,53.47
2023-04-30T20:10:11.605Z,53.56
2023-04-30T20:12:40.595Z,54.27
2023-04-30T20:15:10.392Z,54.10
2023-04-30T20:17:39.395Z,54.54
2023-04-30T20:20:10.992Z,54.07
2023-04-30T20:22:40.010Z,55.45
2023-04-30T20:25:10.090Z,55.30
2023-04-30T20:27:39.033Z,55.56
2023-04-30T20:30:10.944Z,54.69
2023-04-30T20:32:40.461Z,55.50
2023-04-30T20:35:11.182Z,55.52
2023-04-30T20:37:40.299Z,55.34
2023-04-30T20:40:10.642Z,55.19
2023-04-30T20:42:40.776Z,55.09
2023-04-30T20:45:11.472Z,54.85
2023-04-30T20:47:41.612Z,55.74
2023-04-30T20:50:12.165Z,55.85
2023-04-30T20:52:41.435Z,56.26
2023-04-30T20:55:11.109Z,55.44
2023-04-30T20:57:40.238Z,55.95
2023-04-30T21:00:10.661Z,55.63
2023-04-30T21:02:39.823Z,55.49
2023-04-30T21:05:11.223Z,56.75
2023-04-30T21:07:40.324Z,57.11
2023-04-30T21:10:09.875Z,57.38
2023-04-30T21:12:38.881Z,57.73
2023-04-30T21:15:09.189Z,58.06
2023-04-30T21:17:38.321Z,58.73
2023-04-30T21:20:08.878Z,58.75
2023-04-30T21:22:40.696Z,59.24
2023-04-30T21:25:12.256Z,59.01
2023-04-30T21:27:41.270Z,59.66
2023-04-30T21:30:10.852Z,59.29
2023-04-30T21:32:39.917Z,59.39
2023-04-30T21:35:09.066Z,59.40
2023-04-30T21:37:39.379Z,59.69
2023-04-30T21:40:09.636Z,60.48
2023-04-30T21:42:38.601Z,60.95
2023-04-30T21:45:09.692Z,60.21
2023-04-30T21:47:38.696Z,60.68
2023-04-30T21:50:09.492Z,60.76
2023-04-30T21:52:39.774Z,60.80
2023-04-30T21:55:10.076Z,61.20
2023-04-30T21:57:39.098Z,62.02
2023-04-30T22:00:14.351Z,62.28
2023-04-30T22:02:50.708Z,62.41
2023-04-30T22:05:21.207Z,62.31
2023-04-30T22:07:51.593Z,62.06
2023-04-30T22:10:20.554Z,63.04
2023-04-30T22:12:49.541Z,63.35
2023-04-30T22:15:18.165Z,63.62
2023-04-30T22:17:47.702Z,63.04
2023-04-30T22:20:16.747Z,62.89
2023-04-30T22:22:45.720Z,64.22
2023-04-30T22:25:17.615Z,63.95
2023-04-30T22:27:48.498Z,64.29
2023-04-30T22:30:17.534Z,64.91
2023-04-30T22:32:46.504Z,63.70
2023-04-30T22:35:17.576Z,63.33
2023-04-30T22:37:46.654Z,64.27
2023-04-30T22:40:17.940Z,63.70
2023-04-30T22:42:47.024Z,64.15
2023-04-30T22:45:16.309Z,63.99
2023-04-30T22:47:45.890Z,63.76
2023-04-30T22:50:14.625Z,63.32
2023-04-30T22:52:43.712Z,63.73
2023-04-30T22:55:12.486Z,63.71
2023-04-30T22:57:42.818Z,63.42
2023-04-30T23:00:13.079Z,63.65
2023-04-30T23:02:43.727Z,63.87
2023-04-30T23:05:12.892Z,63.06
2023-04-30T23:07:42.038Z,61.66
2023-04-30T23:10:12.053Z,60.68
2023-04-30T23:12:42.481Z,60.26
2023-04-30T23:15:11.577Z,60.32
2023-04-30T23:17:40.637Z,61.63
2023-04-30T23:20:10.883Z,60.91
2023-04-30T23:22:39.949Z,59.83
2023-04-30T23:25:09.371Z,59.53
2023-04-30T23:27:38.373Z,58.96
2023-04-30T23:30:10.899Z,59.04
2023-04-30T23:32:39.954Z,59.08
2023-04-30T23:35:10.145Z,59.05
2023-04-30T23:37:39.070Z,59.65
2023-04-30T23:40:10.240Z,59.87
2023-04-30T23:42:39.382Z,60.22
2023-04-30T23:45:11.240Z,60.37
2023-04-30T23:47:40.168Z,59.78
2023-04-30T23:50:10.748Z,58.83
2023-04-30T23:52:39.677Z,59.15
2023-04-30T23:55:09.660Z,60.10
2023-04-30T23:57:38.611Z,59.76
